createdAt,value
2023-01-28T00:00:54.150Z,1.75
2023-01-28T00:03:22.195Z,1.85
2023-01-28T00:05:50.147Z,1.92
2023-01-28T00:08:18.341Z,1.83
2023-01-28T00:10:50.633Z,1.49
2023-01-28T00:13:18.732Z,1.83
2023-01-28T00:15:46.571Z,1.68
2023-01-28T00:18:14.634Z,1.87
2023-01-28T00:20:42.708Z,1.89
2023-01-28T00:23:11.003Z,1.64
2023-01-28T00:25:39.025Z,1.53
2023-01-28T00:28:08.321Z,1.75
2023-01-28T00:30:39.102Z,1.72
2023-01-28T00:33:07.775Z,1.94
2023-01-28T00:35:36.128Z,2.01
2023-01-28T00:38:05.895Z,1.81
2023-01-28T00:40:34.078Z,2.12
2023-01-28T00:43:02.300Z,2.10
2023-01-28T00:45:31.536Z,1.96
2023-01-28T00:47:59.644Z,2.13
2023-01-28T00:50:27.945Z,2.08
2023-01-28T00:52:55.955Z,1.84
2023-01-28T00:55:26.882Z,2.21
2023-01-28T00:57:56.046Z,2.19
2023-01-28T01:00:27.234Z,2.10
2023-01-28T01:02:57.150Z,2.20
2023-01-28T01:05:25.126Z,2.16
2023-01-28T01:07:53.087Z,2.23
2023-01-28T01:10:21.572Z,1.91
2023-01-28T01:12:50.313Z,1.99
2023-01-28T01:15:19.672Z,2.19
2023-01-28T01:17:49.945Z,1.87
2023-01-28T01:20:21.701Z,1.77
2023-01-28T01:22:51.031Z,1.88
2023-01-28T01:25:19.729Z,1.96
2023-01-28T01:27:50.859Z,1.86
2023-01-28T01:30:20.604Z,1.85
2023-01-28T01:32:49.462Z,1.96
2023-01-28T01:35:18.086Z,1.91
2023-01-28T01:37:47.532Z,2.01
2023-01-28T01:40:15.541Z,1.79
2023-01-28T01:42:44.591Z,1.79
2023-01-28T01:45:15.539Z,1.98
2023-01-28T01:47:48.911Z,1.75
2023-01-28T01:50:24.108Z,1.96
2023-01-28T01:52:57.081Z,2.06
2023-01-28T01:55:29.120Z,2.00
2023-01-28T01:58:02.995Z,1.87
2023-01-28T02:00:31.694Z,1.99
2023-01-28T02:02:59.845Z,2.01
2023-01-28T02:05:27.914Z,1.97
2023-01-28T02:08:20.283Z,1.82
2023-01-28T02:10:50.585Z,1.81
2023-01-28T02:13:25.867Z,1.91
2023-01-28T02:15:58.246Z,1.99
2023-01-28T02:18:27.216Z,2.19
2023-01-28T02:21:19.984Z,1.94
2023-01-28T02:24:19.737Z,1.87
2023-01-28T02:27:22.544Z,1.98
2023-01-28T02:29:59.983Z,2.02
2023-01-28T02:32:33.827Z,2.18
2023-01-28T02:35:08.495Z,2.08
2023-01-28T02:37:39.861Z,1.66
2023-01-28T02:40:13.328Z,1.92
2023-01-28T02:42:45.404Z,1.77
2023-01-28T02:45:21.647Z,1.86
2023-01-28T02:48:00.620Z,2.04
2023-01-28T02:50:40.590Z,1.96
2023-01-28T02:53:38.504Z,1.93
2023-01-28T02:56:18.874Z,1.89
2023-01-28T02:58:57.410Z,1.69
2023-01-28T03:01:34.885Z,1.79
2023-01-28T03:04:10.073Z,1.83
2023-01-28T03:06:42.940Z,1.78
2023-01-28T03:09:27.398Z,1.90
2023-01-28T03:12:16.634Z,2.00
2023-01-28T03:15:06.754Z,1.95
2023-01-28T03:18:00.860Z,1.80
2023-01-28T03:20:53.644Z,1.64
2023-01-28T03:23:49.530Z,1.81
2023-01-28T03:26:39.940Z,1.97
2023-01-28T03:29:29.517Z,1.83
2023-01-28T03:32:17.783Z,1.91
2023-01-28T03:35:05.827Z,1.86
2023-01-28T03:37:35.205Z,1.61
2023-01-28T03:40:15.734Z,1.57
2023-01-28T03:42:44.776Z,1.77
2023-01-28T03:45:32.782Z,1.75
2023-01-28T03:48:03.257Z,1.62
2023-01-28T03:50:32.995Z,1.72
2023-01-28T03:53:16.909Z,1.60
2023-01-28T03:55:51.154Z,1.83
2023-01-28T03:58:19.910Z,1.75
2023-01-28T04:00:48.206Z,1.67
2023-01-28T04:03:19.757Z,1.57
2023-01-28T04:06:06.924Z,1.46
2023-01-28T04:09:07.256Z,1.43
2023-01-28T04:11:56.233Z,1.58
2023-01-28T04:14:31.965Z,1.74
2023-01-28T04:17:11.841Z,1.43
2023-01-28T04:19:40.451Z,1.57
2023-01-28T04:22:12.880Z,1.65
2023-01-28T04:24:42.864Z,1.74
2023-01-28T04:27:12.180Z,1.82
2023-01-28T04:29:40.895Z,1.46
2023-01-28T04:32:26.791Z,1.68
2023-01-28T04:35:23.237Z,1.69
2023-01-28T04:38:02.063Z,1.69
2023-01-28T04:40:38.629Z,1.50
2023-01-28T04:43:11.668Z,1.60
2023-01-28T04:45:52.154Z,1.41
2023-01-28T04:48:42.351Z,1.60
2023-01-28T04:51:28.948Z,1.70
2023-01-28T04:54:16.713Z,1.60
2023-01-28T04:56:45.383Z,1.53
2023-01-28T04:59:13.583Z,1.94
2023-01-28T05:01:42.279Z,1.69
2023-01-28T05:04:10.194Z,1.60
2023-01-28T05:06:39.849Z,1.83
2023-01-28T05:09:11.494Z,1.77
2023-01-28T05:11:40.953Z,2.03
2023-01-28T05:14:10.073Z,1.81
2023-01-28T05:17:02.121Z,1.74
2023-01-28T05:19:30.122Z,1.55
2023-01-28T05:21:58.702Z,1.59
2023-01-28T05:24:46.930Z,1.97
2023-01-28T05:27:16.781Z,1.73
2023-01-28T05:29:44.706Z,1.48
2023-01-28T05:32:12.766Z,1.53
2023-01-28T05:34:40.675Z,1.81
2023-01-28T05:37:12.971Z,1.72
2023-01-28T05:39:40.891Z,1.51
2023-01-28T05:42:09.056Z,1.56
2023-01-28T05:44:43.196Z,1.51
2023-01-28T05:47:21.736Z,1.70
2023-01-28T05:49:56.472Z,1.69
2023-01-28T05:52:45.066Z,1.69
2023-01-28T05:55:23.016Z,1.53
2023-01-28T05:57:51.942Z,1.56
2023-01-28T06:00:24.510Z,1.83
2023-01-28T06:02:54.979Z,1.71
2023-01-28T06:05:24.214Z,1.87
2023-01-28T06:07:52.350Z,1.75
2023-01-28T06:10:20.856Z,1.71
2023-01-28T06:12:49.156Z,1.85
2023-01-28T06:15:33.899Z,1.84
2023-01-28T06:18:04.470Z,2.06
2023-01-28T06:20:34.854Z,2.13
2023-01-28T06:23:03.023Z,2.27
2023-01-28T06:25:31.098Z,2.41
2023-01-28T06:28:04.357Z,2.48
2023-01-28T06:30:33.751Z,2.55
2023-01-28T06:33:01.727Z,2.70
2023-01-28T06:35:29.626Z,2.82
2023-01-28T06:37:57.466Z,2.66
2023-01-28T06:40:26.038Z,2.60
2023-01-28T06:42:55.479Z,2.73
2023-01-28T06:45:23.612Z,2.84
2023-01-28T06:47:53.323Z,2.79
2023-01-28T06:50:21.740Z,2.80
2023-01-28T06:52:49.959Z,2.82
2023-01-28T06:55:20.662Z,2.60
2023-01-28T06:57:48.775Z,2.75
2023-01-28T07:00:17.796Z,2.68
2023-01-28T07:02:46.100Z,2.63
2023-01-28T07:05:16.851Z,2.37
2023-01-28T07:07:45.498Z,2.60
2023-01-28T07:10:16.148Z,2.49
2023-01-28T07:12:45.876Z,2.67
2023-01-28T07:15:16.374Z,2.53
2023-01-28T07:17:44.233Z,2.63
2023-01-28T07:20:15.803Z,2.64
2023-01-28T07:22:46.341Z,2.57
2023-01-28T07:25:16.101Z,2.77
2023-01-28T07:27:51.167Z,2.96
2023-01-28T07:30:20.846Z,3.09
2023-01-28T07:32:48.945Z,2.98
2023-01-28T07:35:16.802Z,2.76
2023-01-28T07:37:52.381Z,2.79
2023-01-28T07:40:20.748Z,3.03
2023-01-28T07:42:48.571Z,3.10
2023-01-28T07:45:17.083Z,3.13
2023-01-28T07:47:45.161Z,3.11
2023-01-28T07:50:13.536Z,3.04
2023-01-28T07:52:44.512Z,3.04
2023-01-28T07:55:15.460Z,2.73
2023-01-28T07:57:53.513Z,2.78
2023-01-28T08:00:22.978Z,2.64
2023-01-28T08:02:51.358Z,2.84
2023-01-28T08:05:20.842Z,2.99
2023-01-28T08:07:49.699Z,2.89
2023-01-28T08:10:20.412Z,2.84
2023-01-28T08:12:55.673Z,2.65
2023-01-28T08:15:24.391Z,2.74
2023-01-28T08:17:55.181Z,2.58
2023-01-28T08:20:23.372Z,2.45
2023-01-28T08:22:51.392Z,2.46
2023-01-28T08:25:20.842Z,2.41
2023-01-28T08:27:48.835Z,2.42
2023-01-28T08:30:17.161Z,2.28
2023-01-28T08:32:45.352Z,2.54
2023-01-28T08:35:13.332Z,2.65
2023-01-28T08:37:41.246Z,2.73
2023-01-28T08:40:10.581Z,2.76
2023-01-28T08:42:39.800Z,2.81
2023-01-28T08:45:09.131Z,2.60
2023-01-28T08:47:36.991Z,2.56
2023-01-28T08:50:05.347Z,2.64
2023-01-28T08:52:33.266Z,2.39
2023-01-28T08:55:01.208Z,2.57
2023-01-28T08:57:29.029Z,3.06
2023-01-28T08:59:59.328Z,2.59
2023-01-28T09:02:31.913Z,2.62
2023-01-28T09:05:00.532Z,2.75
2023-01-28T09:07:28.485Z,2.70
2023-01-28T09:09:56.483Z,2.71
2023-01-28T09:12:25.014Z,2.79
2023-01-28T09:14:53.192Z,2.66
2023-01-28T09:17:23.096Z,2.57
2023-01-28T09:19:51.768Z,2.97
2023-01-28T09:22:19.814Z,2.65
2023-01-28T09:24:47.995Z,2.50
2023-01-28T09:27:15.938Z,2.70
2023-01-28T09:29:43.902Z,3.08
2023-01-28T09:32:11.892Z,2.82
2023-01-28T09:34:41.231Z,3.22
2023-01-28T09:37:09.159Z,2.76
2023-01-28T09:39:37.142Z,2.84
2023-01-28T09:42:24.148Z,3.14
2023-01-28T09:45:04.108Z,3.18
2023-01-28T09:47:36.455Z,2.90
2023-01-28T09:50:08.572Z,2.76
2023-01-28T09:52:40.382Z,2.84
2023-01-28T09:55:16.259Z,3.34
2023-01-28T09:57:48.693Z,3.20
2023-01-28T10:00:20.210Z,3.26
2023-01-28T10:03:07.796Z,3.06
2023-01-28T10:05:48.694Z,3.04
2023-01-28T10:08:31.258Z,3.01
2023-01-28T10:11:13.080Z,3.50
2023-01-28T10:13:49.777Z,3.84
2023-01-28T10:16:25.539Z,3.27
2023-01-28T10:18:57.403Z,3.18
2023-01-28T10:21:34.698Z,3.10
2023-01-28T10:24:08.206Z,3.23
2023-01-28T10:26:40.001Z,2.95
2023-01-28T10:29:14.322Z,3.19
2023-01-28T10:31:53.307Z,2.96
2023-01-28T10:34:22.722Z,3.29
2023-01-28T10:36:52.312Z,3.53
2023-01-28T10:39:24.779Z,3.09
2023-01-28T10:41:59.058Z,2.88
2023-01-28T10:44:35.746Z,3.40
2023-01-28T10:47:11.238Z,3.71
2023-01-28T10:49:44.132Z,3.30
2023-01-28T10:52:15.044Z,3.54
2023-01-28T10:54:45.626Z,3.23
2023-01-28T10:57:19.512Z,3.61
2023-01-28T10:59:50.112Z,3.51
2023-01-28T11:02:32.138Z,3.79
2023-01-28T11:05:06.369Z,4.03
2023-01-28T11:07:35.651Z,3.57
2023-01-28T11:10:03.733Z,3.69
2023-01-28T11:12:32.101Z,3.53
2023-01-28T11:15:01.607Z,3.82
2023-01-28T11:17:34.340Z,3.63
2023-01-28T11:20:12.310Z,3.49
2023-01-28T11:22:44.208Z,3.62
2023-01-28T11:25:19.763Z,3.34
2023-01-28T11:27:50.143Z,3.59
2023-01-28T11:30:24.998Z,3.25
2023-01-28T11:33:00.509Z,3.20
2023-01-28T11:35:31.274Z,3.26
2023-01-28T11:38:01.639Z,3.22
2023-01-28T11:40:30.290Z,3.73
2023-01-28T11:43:04.281Z,3.33
2023-01-28T11:45:48.589Z,3.14
2023-01-28T11:48:32.262Z,3.20
2023-01-28T11:51:09.349Z,3.09
2023-01-28T11:54:02.832Z,3.25
2023-01-28T11:57:01.032Z,3.27
2023-01-28T12:00:02.480Z,3.25
2023-01-28T12:02:48.615Z,3.53
2023-01-28T12:05:42.361Z,3.22
2023-01-28T12:08:19.671Z,3.00
2023-01-28T12:11:05.287Z,3.16
2023-01-28T12:13:48.454Z,2.90
2023-01-28T12:16:45.516Z,2.86
2023-01-28T12:19:32.432Z,2.84
2023-01-28T12:22:24.833Z,2.63
2023-01-28T12:25:08.582Z,2.71
2023-01-28T12:27:48.847Z,2.73
2023-01-28T12:30:26.323Z,2.70
2023-01-28T12:33:10.060Z,2.94
2023-01-28T12:35:56.478Z,2.67
2023-01-28T12:38:34.570Z,2.61
2023-01-28T12:41:13.877Z,2.54
2023-01-28T12:44:01.841Z,2.33
2023-01-28T12:46:41.954Z,2.49
2023-01-28T12:49:15.970Z,2.74
2023-01-28T12:51:52.428Z,2.73
2023-01-28T12:54:25.063Z,3.04
2023-01-28T12:56:55.675Z,2.63
2023-01-28T12:59:30.372Z,2.46
2023-01-28T13:02:07.882Z,2.66
2023-01-28T13:04:43.462Z,2.70
2023-01-28T13:07:16.765Z,2.60
2023-01-28T13:09:53.223Z,2.58
2023-01-28T13:12:23.752Z,2.53
2023-01-28T13:14:54.413Z,2.69
2023-01-28T13:17:31.012Z,2.79
2023-01-28T13:20:00.312Z,2.48
2023-01-28T13:22:34.149Z,2.55
2023-01-28T13:25:20.157Z,2.44
2023-01-28T13:27:57.250Z,2.46
2023-01-28T13:30:29.347Z,2.47
2023-01-28T13:33:00.310Z,2.32
2023-01-28T13:35:34.376Z,2.58
2023-01-28T13:38:10.115Z,2.39
2023-01-28T13:40:41.693Z,2.55
2023-01-28T13:43:37.256Z,2.37
2023-01-28T13:46:08.459Z,2.67
2023-01-28T13:48:43.004Z,2.70
2023-01-28T13:51:18.880Z,2.62
2023-01-28T13:53:52.598Z,2.73
2023-01-28T14:13:17.627Z,2.80
2023-01-28T14:15:58.544Z,3.07
2023-01-28T14:18:29.013Z,2.88
2023-01-28T14:21:09.181Z,2.68
2023-01-28T14:23:39.958Z,2.65
2023-01-28T14:26:20.445Z,2.97
2023-01-28T14:28:59.644Z,3.00
2023-01-28T14:31:30.200Z,2.79
2023-01-28T14:34:07.326Z,2.94
2023-01-28T14:36:39.042Z,2.74
2023-01-28T14:39:12.341Z,2.92
2023-01-28T14:41:44.371Z,2.88
2023-01-28T14:44:28.275Z,3.04
2023-01-28T14:47:12.230Z,2.65
2023-01-28T14:49:54.840Z,2.69
2023-01-28T14:52:41.543Z,2.90
2023-01-28T14:55:24.110Z,2.78
2023-01-28T14:57:57.147Z,2.70
2023-01-28T15:00:28.616Z,2.78
2023-01-28T15:02:56.929Z,2.96
2023-01-28T15:05:28.919Z,3.07
2023-01-28T15:07:57.425Z,2.89
2023-01-28T15:10:29.299Z,3.08
2023-01-28T15:13:00.907Z,2.96
2023-01-28T15:15:34.403Z,2.60
2023-01-28T15:18:05.958Z,2.49
2023-01-28T15:20:34.543Z,2.45
2023-01-28T15:23:03.835Z,2.60
2023-01-28T15:25:32.059Z,2.56
2023-01-28T15:28:01.824Z,2.56
2023-01-28T15:30:33.538Z,2.60
2023-01-28T15:33:04.574Z,2.57
2023-01-28T15:35:33.031Z,2.77
2023-01-28T15:38:01.801Z,2.58
2023-01-28T15:40:31.589Z,2.45
2023-01-28T15:43:00.179Z,2.56
2023-01-28T15:45:37.120Z,2.67
2023-01-28T15:48:08.987Z,2.69
2023-01-28T15:50:38.411Z,2.39
2023-01-28T15:53:11.112Z,2.66
2023-01-28T15:55:40.842Z,2.65
2023-01-28T15:58:29.472Z,2.57
2023-01-28T16:01:19.900Z,2.63
2023-01-28T16:04:00.458Z,2.48
2023-01-28T16:06:34.225Z,2.55
2023-01-28T16:09:05.815Z,2.57
2023-01-28T16:11:41.306Z,2.55
2023-01-28T16:14:22.686Z,2.88
2023-01-28T16:16:53.172Z,2.58
2023-01-28T16:19:31.965Z,2.49
2023-01-28T16:21:59.930Z,2.46
2023-01-28T16:24:30.173Z,2.47
2023-01-28T16:26:59.741Z,2.90
2023-01-28T16:29:30.912Z,2.59
2023-01-28T16:32:02.384Z,2.49
2023-01-28T16:34:32.723Z,2.56
2023-01-28T16:37:02.679Z,2.37
2023-01-28T16:39:31.166Z,2.42
2023-01-28T16:41:59.606Z,2.32
2023-01-28T16:44:27.782Z,2.38
2023-01-28T16:46:56.368Z,2.37
2023-01-28T16:49:25.958Z,2.46
2023-01-28T16:51:55.182Z,2.55
2023-01-28T16:54:24.147Z,2.64
2023-01-28T16:56:52.435Z,2.48
2023-01-28T16:59:21.001Z,2.47
2023-01-28T17:01:49.988Z,2.56
2023-01-28T17:04:18.779Z,2.38
2023-01-28T17:06:48.443Z,2.28
2023-01-28T17:09:16.600Z,2.54
2023-01-28T17:11:44.552Z,2.62
2023-01-28T17:14:12.782Z,2.76
2023-01-28T17:16:41.807Z,2.48
2023-01-28T17:19:10.307Z,2.42
2023-01-28T17:21:38.404Z,2.54
2023-01-28T17:24:09.197Z,2.89
2023-01-28T17:26:38.170Z,2.62
2023-01-28T17:29:07.865Z,2.75
2023-01-28T17:31:36.705Z,2.48
2023-01-28T17:34:07.111Z,2.77
2023-01-28T17:36:35.846Z,2.84
2023-01-28T17:39:05.096Z,2.76
2023-01-28T17:41:34.793Z,2.85
2023-01-28T17:44:04.816Z,2.96
2023-01-28T17:46:33.139Z,2.67
2023-01-28T17:49:04.745Z,2.50
2023-01-28T17:51:33.377Z,2.95
2023-01-28T17:54:01.848Z,2.83
2023-01-28T17:56:31.350Z,2.78
2023-01-28T17:59:03.801Z,2.58
2023-01-28T18:01:32.659Z,2.44
2023-01-28T18:04:01.388Z,2.45
2023-01-28T18:06:32.607Z,2.48
2023-01-28T18:09:01.247Z,2.41
2023-01-28T18:11:29.870Z,2.42
2023-01-28T18:13:58.335Z,2.40
2023-01-28T18:16:28.358Z,2.27
2023-01-28T18:18:56.452Z,2.21
2023-01-28T18:21:43.039Z,2.25
2023-01-28T18:24:18.874Z,2.14
2023-01-28T18:26:47.913Z,2.13
2023-01-28T18:29:20.406Z,2.34
2023-01-28T18:31:54.347Z,2.43
2023-01-28T18:34:23.828Z,2.57
2023-01-28T18:36:52.329Z,2.52
2023-01-28T18:39:22.200Z,2.68
2023-01-28T18:41:54.799Z,2.57
2023-01-28T18:44:24.430Z,2.39
2023-01-28T18:46:54.570Z,2.37
2023-01-28T18:49:22.691Z,2.54
2023-01-28T18:51:50.937Z,2.42
2023-01-28T18:54:21.524Z,2.19
2023-01-28T18:56:49.702Z,2.49
2023-01-28T18:59:21.355Z,2.34
2023-01-28T19:01:50.000Z,2.54
2023-01-28T19:04:20.099Z,2.65
2023-01-28T19:06:48.254Z,2.49
2023-01-28T19:09:17.859Z,2.48
2023-01-28T19:11:48.309Z,2.51
2023-01-28T19:14:16.643Z,2.57
2023-01-28T19:16:45.536Z,2.43
2023-01-28T19:19:13.673Z,2.57
2023-01-28T19:21:43.583Z,2.43
2023-01-28T19:24:14.322Z,2.31
2023-01-28T19:26:44.026Z,2.25
2023-01-28T19:29:15.617Z,2.13
2023-01-28T19:31:44.374Z,2.27
2023-01-28T19:34:13.162Z,2.40
2023-01-28T19:36:42.898Z,2.33
2023-01-28T19:39:13.156Z,2.15
2023-01-28T19:41:42.289Z,1.97
2023-01-28T19:44:13.073Z,2.24
2023-01-28T19:46:41.745Z,2.08
2023-01-28T19:49:10.749Z,2.02
2023-01-28T19:51:38.958Z,2.02
2023-01-28T19:54:08.394Z,2.04
2023-01-28T19:56:37.737Z,2.06
2023-01-28T19:59:06.459Z,1.90
2023-01-28T20:01:35.943Z,1.73
2023-01-28T20:04:04.826Z,1.87
2023-01-28T20:06:34.657Z,2.01
2023-01-28T20:09:06.139Z,1.95
2023-01-28T20:11:36.442Z,2.03
2023-01-28T20:14:04.449Z,2.06
2023-01-28T20:16:33.980Z,1.77
2023-01-28T20:19:03.988Z,1.61
2023-01-28T20:21:33.442Z,1.86
2023-01-28T20:24:03.078Z,2.34
2023-01-28T20:26:33.990Z,2.16
2023-01-28T20:29:05.161Z,2.00
2023-01-28T20:31:34.223Z,2.14
2023-01-28T20:34:02.383Z,2.11
2023-01-28T20:36:30.625Z,2.27
2023-01-28T20:38:59.146Z,2.04
2023-01-28T20:41:27.969Z,2.02
2023-01-28T20:43:57.325Z,1.80
2023-01-28T20:46:29.245Z,1.47
2023-01-28T20:48:58.884Z,1.64
2023-01-28T20:51:30.483Z,1.77
2023-01-28T20:54:00.496Z,1.91
2023-01-28T20:56:30.115Z,1.93
2023-01-28T20:58:59.682Z,1.69
2023-01-28T21:01:30.725Z,1.71
2023-01-28T21:03:58.708Z,1.62
2023-01-28T21:06:28.429Z,1.83
2023-01-28T21:08:57.239Z,1.51
2023-01-28T21:11:27.424Z,1.43
2023-01-28T21:13:58.181Z,1.68
2023-01-28T21:16:28.449Z,1.57
2023-01-28T21:18:56.715Z,1.52
2023-01-28T21:21:26.889Z,1.60
2023-01-28T21:23:57.784Z,1.64
2023-01-28T21:26:26.387Z,1.56
2023-01-28T21:28:56.348Z,1.53
2023-01-28T21:31:26.465Z,1.53
2023-01-28T21:33:57.792Z,1.83
2023-01-28T21:36:26.943Z,1.91
2023-01-28T21:38:56.624Z,1.63
2023-01-28T21:41:24.816Z,1.52
2023-01-28T21:43:53.960Z,1.16
2023-01-28T21:46:27.128Z,1.24
2023-01-28T21:48:57.797Z,1.70
2023-01-28T21:51:39.613Z,1.58
2023-01-28T21:54:10.885Z,1.51
2023-01-28T21:56:39.713Z,1.58
2023-01-28T21:59:25.088Z,1.51
2023-01-28T22:01:53.215Z,1.27
2023-01-28T22:04:23.486Z,1.55
2023-01-28T22:06:53.260Z,1.64
2023-01-28T22:09:21.258Z,1.60
2023-01-28T22:11:49.463Z,1.39
2023-01-28T22:14:17.765Z,1.44
2023-01-28T22:16:46.855Z,1.32
2023-01-28T22:19:16.116Z,1.35
2023-01-28T22:21:46.951Z,1.00
2023-01-28T22:24:17.611Z,1.11
2023-01-28T22:26:47.261Z,0.97
2023-01-28T22:29:20.336Z,1.03
2023-01-28T22:31:49.369Z,0.94
2023-01-28T22:34:18.662Z,1.16
2023-01-28T22:36:48.964Z,1.28
2023-01-28T22:39:18.062Z,1.31
2023-01-28T22:41:48.545Z,0.98
2023-01-28T22:44:17.125Z,1.09
2023-01-28T22:46:47.784Z,0.95
2023-01-28T22:49:16.057Z,1.02
2023-01-28T22:51:44.224Z,0.99
2023-01-28T22:54:15.155Z,0.89
2023-01-28T22:56:43.971Z,0.96
2023-01-28T22:59:12.972Z,0.93
2023-01-28T23:01:41.402Z,0.90
2023-01-28T23:04:10.019Z,0.85
2023-01-28T23:06:38.318Z,0.76
2023-01-28T23:09:06.599Z,1.08
2023-01-28T23:11:35.994Z,1.14
2023-01-28T23:14:22.972Z,1.12
2023-01-28T23:17:08.567Z,0.96
2023-01-28T23:19:54.700Z,1.10
2023-01-28T23:22:42.141Z,1.00
2023-01-28T23:25:11.055Z,1.09
2023-01-28T23:27:41.201Z,1.36
2023-01-28T23:30:11.047Z,1.36
2023-01-28T23:32:41.017Z,1.18
2023-01-28T23:35:10.097Z,1.21
2023-01-28T23:37:38.318Z,1.73
2023-01-28T23:40:08.685Z,1.94
2023-01-28T23:42:37.372Z,1.69
2023-01-28T23:45:08.580Z,2.02
2023-01-28T23:47:37.244Z,2.24
2023-01-28T23:50:16.170Z,2.12
2023-01-28T23:52:44.741Z,2.03
2023-01-28T23:55:13.164Z,2.25
2023-01-28T23:57:41.772Z,2.11
